Colorado Springs, CO

9:19 AM MDT on May 27, 2015 (GMT -0600)
Usaf Academy | | Change Station
CLOSE
Current Station
Airport
Location: Air Force Academy,
Elevation: 6572 ft
Nearby Weather Stations

Elev 6572 ft 38.97 °N, 104.81 °W | Updated 21 minutes ago

Partly Cloudy
Partly Cloudy
55 °F
Feels Like 55 °F
N
6
Wind Variable Wind from SSE

Today
High -- | Low -- °F
--% Chance of Precip.
Yesterday
High -- | Low -- °F
Precip. -- in
5:38 AM 8:14 PM
Waxing Gibbous, 68% visible
Pressure 30.01 in
Visibility 10.0 miles
Clouds Clear
Dew Point 46 °F
Humidity 71%
Rainfall 0.00 in
Snow Depth Not available.
UV 5 out of 12
Pollen 7.50 out of 12
Air Quality Not available.
Flu Activity Sporadic
METAR KAFF 271458Z AUTO 15005KT 10SM CLR 13/08 A3016 RMK AO2 SLP163 T01300079 53000

More Conditions Fewer Conditions

Pressure 30.01 in
Visibility 10.0 miles
Clouds Clear
Dew Point 46 °F
Humidity 71%
Rainfall 0.00 in
Snow Depth Not available.
UV 5 out of 12
Pollen 7.50 out of 12
Air Quality Not available.
Flu Activity Sporadic
METAR KAFF 271458Z AUTO 15005KT 10SM CLR 13/08 A3016 RMK AO2 SLP163 T01300079 53000

More Conditions Fewer Conditions

10-Day Weather Forecast

Almanac

Astronomy

May. 27, 2015 Rise Set
Actual Time
Civil Twilight
Nautical Twilight
Astronomical Twilight
Moon
Length of Visible Light
Length of Day
Tomorrow will be .
, % of the Moon is Illuminated

Today's Extremes

State Highs State Lows

Community

WunderPhotos

Upload Photos

1,824,695 photos uploaded!

WunderBlogs® & News

Nearby

Air Quality

  Air Quality AQ Index Pollutant
Not available.

Snow Depth

Station Depth Elevation

Earthquake Activity

City Distance Mag. Time & Date
Minimum magnitude displayed is 2.5.

Coastal Water Temperatures

Place Temperature

Stations

Nearby Weather Stations

Station Location Temp. Windchill Dew Point Humidity Wind Precip. Elev Updated Type